Time;durP1;ratioP1;P1;durP2;ratioP2;P2;SDS_P1;SDS_P2;PMS_P1;PMS_P2;Temp;Humidity;BMP_temperature;BMP_pressure;BME280_temperature;BME280_humidity;BME280_pressure;Samples;Min_cycle;Max_cycle;Signal;HPM_P1;HPM_P2
2022/03/06 00:00:36;;;;;;;20.90;20.00;;;18.80;50.80;;;;;;5051427;28;21003;-49
2022/03/06 00:03:04;;;;;;;21.20;20.30;;;18.70;50.90;;;;;;5051428;28;20455;-49
2022/03/06 00:05:32;;;;;;;21.27;20.23;;;18.70;51.10;;;;;;5051336;28;20468;-49
2022/03/06 00:08:00;;;;;;;20.97;20.07;;;18.70;51.00;;;;;;5050871;28;20489;-48
2022/03/06 00:10:27;;;;;;;21.70;20.70;;;18.70;51.00;;;;;;5051287;28;20479;-50
2022/03/06 00:12:54;;;;;;;20.70;19.80;;;18.60;51.00;;;;;;5051407;28;20444;-49
2022/03/06 00:15:21;;;;;;;21.33;20.33;;;18.60;51.00;;;;;;5050979;28;20974;-47
2022/03/06 00:17:48;;;;;;;21.80;20.70;;;18.60;51.10;;;;;;5051146;28;20444;-48
2022/03/06 00:20:15;;;;;;;21.27;20.27;;;18.60;51.10;;;;;;5051415;28;20493;-49
2022/03/06 00:22:43;;;;;;;21.90;20.90;;;18.50;51.10;;;;;;5051200;28;20451;-49
2022/03/06 00:25:11;;;;;;;21.23;20.23;;;18.50;51.20;;;;;;5050822;28;21007;-50
2022/03/06 00:27:37;;;;;;;20.83;19.93;;;18.40;51.10;;;;;;5051223;28;20452;-49
2022/03/06 00:30:07;;;;;;;21.07;20.10;;;18.40;51.70;;;;;;5051029;28;20814;-50
2022/03/06 00:32:34;;;;;;;21.13;20.23;;;18.40;51.20;;;;;;5051102;28;20441;-49
2022/03/06 00:35:01;;;;;;;20.80;19.90;;;18.40;51.20;;;;;;5051073;28;20469;-49
2022/03/06 00:37:27;;;;;;;20.87;19.83;;;18.30;51.20;;;;;;5050854;28;20445;-48
2022/03/06 00:39:55;;;;;;;20.87;19.97;;;18.30;51.40;;;;;;5050950;28;20448;-48
2022/03/06 00:42:22;;;;;;;20.93;20.03;;;18.30;51.60;;;;;;5051167;28;20621;-49
2022/03/06 00:44:50;;;;;;;20.00;19.20;;;18.30;51.70;;;;;;5050680;28;20476;-49
2022/03/06 00:47:17;;;;;;;21.67;20.70;;;18.30;51.70;;;;;;5050652;28;20452;-49
2022/03/06 00:49:44;;;;;;;20.90;19.90;;;18.20;51.60;;;;;;5050724;28;20484;-49
2022/03/06 00:52:12;;;;;;;20.70;19.80;;;18.20;51.60;;;;;;5052375;28;20444;-47
2022/03/06 00:54:39;;;;;;;21.20;20.20;;;18.10;51.70;;;;;;5054554;28;20986;-49
2022/03/06 00:57:07;;;;;;;22.47;21.37;;;18.10;51.70;;;;;;5054387;28;20451;-49
2022/03/06 00:59:35;;;;;;;20.70;19.80;;;18.10;51.80;;;;;;5054336;28;20444;-49
2022/03/06 01:02:03;;;;;;;20.97;20.00;;;18.00;51.80;;;;;;5054484;28;20793;-50
2022/03/06 01:04:31;;;;;;;20.80;19.80;;;18.00;51.90;;;;;;5054126;28;20487;-49
2022/03/06 01:06:57;;;;;;;20.60;19.73;;;18.00;52.10;;;;;;5054388;28;20444;-49
2022/03/06 01:09:25;;;;;;;20.87;19.97;;;17.90;52.30;;;;;;5054020;28;20487;-48
2022/03/06 01:11:52;;;;;;;20.47;19.57;;;18.00;52.50;;;;;;5054329;28;20444;-49
2022/03/06 01:14:20;;;;;;;21.80;20.70;;;17.90;52.40;;;;;;5053833;28;20468;-49
2022/03/06 01:16:47;;;;;;;20.67;19.77;;;17.90;52.50;;;;;;5054245;28;20445;-49
2022/03/06 01:19:14;;;;;;;21.20;20.20;;;17.90;52.70;;;;;;5053960;28;20816;-49
2022/03/06 01:21:40;;;;;;;20.73;19.83;;;17.90;52.70;;;;;;5054259;28;20452;-47
2022/03/06 01:24:08;;;;;;;21.17;20.17;;;17.90;52.70;;;;;;5053844;28;20464;-49
2022/03/06 01:26:34;;;;;;;21.53;20.43;;;17.90;52.80;;;;;;5054003;28;20445;-49
2022/03/06 01:29:01;;;;;;;20.63;19.73;;;17.90;52.80;;;;;;5053710;28;20484;-49
2022/03/06 01:31:29;;;;;;;21.33;20.37;;;17.80;52.80;;;;;;5054082;28;20452;-49
2022/03/06 01:33:56;;;;;;;21.60;20.60;;;17.80;52.90;;;;;;5053671;28;20832;-49
2022/03/06 01:36:23;;;;;;;20.77;19.87;;;17.70;52.90;;;;;;5053820;28;20445;-51
2022/03/06 01:38:51;;;;;;;21.50;20.50;;;17.70;53.00;;;;;;5053534;28;20451;-49
2022/03/06 01:41:17;;;;;;;20.93;19.83;;;17.70;53.10;;;;;;5053843;28;20456;-48
2022/03/06 01:43:44;;;;;;;20.47;19.60;;;17.70;53.20;;;;;;5053209;28;20920;-50
2022/03/06 01:46:12;;;;;;;20.57;19.60;;;17.70;53.30;;;;;;5053791;28;20449;-49
2022/03/06 01:48:41;;;;;;;21.80;20.80;;;17.60;53.30;;;;;;5053352;28;20884;-48
2022/03/06 01:51:08;;;;;;;21.87;20.87;;;17.60;54.00;;;;;;5053610;28;20810;-47
2022/03/06 01:53:34;;;;;;;20.90;20.00;;;17.60;53.50;;;;;;5053290;28;20464;-49
2022/03/06 01:56:01;;;;;;;20.50;19.60;;;17.60;53.50;;;;;;5053477;28;20546;-48
2022/03/06 01:58:28;;;;;;;20.63;19.73;;;17.60;53.50;;;;;;5053238;28;20444;-49
2022/03/06 02:00:55;;;;;;;21.93;20.93;;;17.60;53.50;;;;;;5053380;28;20452;-47
2022/03/06 02:03:21;;;;;;;20.83;19.93;;;17.50;53.50;;;;;;5053304;28;20448;-49
2022/03/06 02:05:50;;;;;;;21.10;20.10;;;17.50;53.70;;;;;;5053059;28;20449;-48
2022/03/06 02:08:16;;;;;;;21.10;20.07;;;17.40;53.70;;;;;;5053051;28;20534;-47
2022/03/06 02:10:43;;;;;;;20.60;19.70;;;17.40;53.80;;;;;;5053208;28;20451;-49
2022/03/06 02:13:10;;;;;;;21.20;20.20;;;17.50;53.90;;;;;;5053182;28;20452;-49
2022/03/06 02:15:37;;;;;;;21.53;20.60;;;17.40;53.90;;;;;;5052808;28;20444;-48
2022/03/06 02:18:04;;;;;;;21.03;20.13;;;17.50;53.80;;;;;;5052785;28;20799;-49
2022/03/06 02:20:31;;;;;;;21.33;20.40;;;17.50;53.80;;;;;;5052959;28;20999;-49
2022/03/06 02:23:00;;;;;;;20.60;19.70;;;17.50;53.80;;;;;;5053032;28;20453;-48
2022/03/06 02:25:32;;;;;;;20.20;19.40;;;17.50;53.90;;;;;;5052835;28;20465;-49
2022/03/06 02:28:02;;;;;;;20.43;19.53;;;17.40;54.00;;;;;;5052563;28;20449;-48
2022/03/06 02:30:33;;;;;;;20.87;19.97;;;17.40;54.00;;;;;;5052812;28;20433;-47
2022/03/06 02:33:02;;;;;;;21.10;20.10;;;17.30;54.10;;;;;;5052802;28;20451;-50
2022/03/06 02:35:29;;;;;;;20.60;19.70;;;17.30;54.10;;;;;;5052635;28;20518;-49
2022/03/06 02:37:56;;;;;;;20.90;20.00;;;17.30;54.20;;;;;;5052583;28;20440;-50
2022/03/06 02:40:24;;;;;;;21.60;20.60;;;17.30;54.20;;;;;;5052215;28;20433;-49
2022/03/06 02:42:53;;;;;;;21.50;20.50;;;17.40;54.20;;;;;;5052297;28;20437;-48
2022/03/06 02:45:22;;;;;;;20.97;19.97;;;17.40;54.10;;;;;;5052348;28;20522;-49
2022/03/06 02:47:50;;;;;;;20.90;20.00;;;17.40;54.30;;;;;;5052273;28;20964;-49
2022/03/06 02:50:19;;;;;;;20.80;19.90;;;17.30;54.30;;;;;;5052122;28;20551;-51
2022/03/06 02:52:47;;;;;;;21.43;20.43;;;17.30;54.40;;;;;;5052356;28;20802;-47
2022/03/06 02:55:16;;;;;;;20.50;19.60;;;17.30;54.20;;;;;;5052400;28;20528;-50
2022/03/06 02:57:44;;;;;;;21.90;20.80;;;17.40;54.20;;;;;;5052120;28;20444;-49
2022/03/06 03:00:14;;;;;;;21.10;20.17;;;17.30;54.20;;;;;;5051893;28;20439;-49
2022/03/06 03:02:42;;;;;;;21.27;20.37;;;17.30;54.20;;;;;;5052118;28;20779;-49
2022/03/06 03:05:10;;;;;;;21.10;20.10;;;17.20;54.30;;;;;;5052114;28;20468;-49
2022/03/06 03:07:39;;;;;;;21.30;20.40;;;17.20;54.40;;;;;;5052104;28;20451;-48
2022/03/06 03:10:07;;;;;;;21.93;20.83;;;17.20;54.60;;;;;;5051870;28;20822;-49
2022/03/06 03:12:33;;;;;;;21.50;20.50;;;17.20;54.60;;;;;;5051831;28;20453;-49
2022/03/06 03:15:02;;;;;;;22.00;21.00;;;17.20;54.60;;;;;;5051569;28;21000;-49
2022/03/06 03:17:28;;;;;;;20.70;19.80;;;17.20;54.50;;;;;;5051961;28;20452;-49
2022/03/06 03:19:55;;;;;;;21.40;20.30;;;17.20;54.70;;;;;;5051729;28;20440;-49
2022/03/06 03:22:22;;;;;;;21.30;20.30;;;17.10;54.70;;;;;;5051927;28;20440;-48
2022/03/06 03:24:48;;;;;;;21.10;20.20;;;17.20;54.70;;;;;;5051642;28;20471;-49
2022/03/06 03:27:15;;;;;;;21.20;20.20;;;17.10;54.70;;;;;;5051660;28;20457;-47
2022/03/06 03:29:42;;;;;;;21.37;20.37;;;17.20;54.70;;;;;;5051652;28;20826;-50
2022/03/06 03:32:10;;;;;;;21.40;20.40;;;17.10;54.60;;;;;;5051765;28;20457;-49
2022/03/06 03:34:37;;;;;;;22.00;20.90;;;17.10;54.70;;;;;;5051701;28;20461;-49
2022/03/06 03:37:04;;;;;;;21.47;20.47;;;17.10;54.70;;;;;;5051572;28;20452;-49
2022/03/06 03:39:31;;;;;;;21.30;20.30;;;17.10;54.70;;;;;;5051550;28;20449;-48
2022/03/06 03:41:58;;;;;;;21.93;20.93;;;17.00;54.70;;;;;;5051620;28;20440;-49
2022/03/06 03:44:25;;;;;;;20.67;19.77;;;17.10;54.80;;;;;;5051526;28;20476;-49
2022/03/06 03:46:51;;;;;;;22.07;20.97;;;17.10;54.80;;;;;;5051641;28;20452;-50
2022/03/06 03:49:19;;;;;;;21.50;20.60;;;17.00;55.00;;;;;;5051139;28;20487;-48
2022/03/06 03:51:46;;;;;;;21.00;20.10;;;16.90;55.20;;;;;;5051542;28;20444;-49
2022/03/06 03:54:14;;;;;;;21.27;20.27;;;16.90;55.40;;;;;;5051513;28;20812;-48
2022/03/06 03:56:42;;;;;;;21.00;20.10;;;16.90;55.60;;;;;;5051455;28;20456;-49
2022/03/06 03:59:09;;;;;;;22.40;21.30;;;16.90;55.60;;;;;;5051001;28;20449;-49
2022/03/06 04:01:36;;;;;;;22.10;21.00;;;16.90;55.70;;;;;;5051410;28;20452;-50
2022/03/06 04:04:04;;;;;;;22.50;21.33;;;16.90;55.60;;;;;;5051485;28;20471;-49
2022/03/06 04:06:32;;;;;;;21.77;20.70;;;17.00;55.50;;;;;;5051480;28;20537;-49
2022/03/06 04:08:59;;;;;;;21.50;20.60;;;17.10;55.30;;;;;;5051113;28;20480;-48
2022/03/06 04:11:25;;;;;;;21.30;20.30;;;17.10;55.20;;;;;;5051065;28;20469;-48
2022/03/06 04:13:52;;;;;;;20.30;19.43;;;17.10;55.00;;;;;;5051284;28;20475;-49
2022/03/06 04:16:19;;;;;;;21.27;20.33;;;17.10;55.00;;;;;;5051423;28;20459;-47
2022/03/06 04:18:45;;;;;;;21.73;20.63;;;17.10;55.20;;;;;;5051085;28;20809;-49
2022/03/06 04:21:12;;;;;;;22.17;21.07;;;17.10;55.10;;;;;;5051306;28;20448;-50
2022/03/06 04:23:40;;;;;;;21.63;20.53;;;17.10;55.30;;;;;;5050897;28;20472;-49
2022/03/06 04:26:07;;;;;;;21.13;20.13;;;17.10;55.20;;;;;;5051332;28;20448;-47
2022/03/06 04:28:34;;;;;;;20.90;19.90;;;17.10;55.20;;;;;;5054518;28;20467;-49
2022/03/06 04:31:00;;;;;;;20.77;19.87;;;17.10;55.10;;;;;;5054928;28;20480;-49
2022/03/06 04:33:27;;;;;;;20.60;19.80;;;17.20;55.10;;;;;;5055312;28;20455;-47
2022/03/06 04:35:54;;;;;;;22.13;21.03;;;17.10;55.00;;;;;;5054756;28;20827;-49
2022/03/06 04:38:20;;;;;;;22.23;21.23;;;17.20;55.10;;;;;;5054802;28;20448;-50
2022/03/06 04:40:49;;;;;;;21.63;20.53;;;17.10;55.10;;;;;;5054737;28;20442;-49
2022/03/06 04:43:15;;;;;;;21.80;20.80;;;17.20;55.10;;;;;;5054828;28;20459;-49
2022/03/06 04:45:42;;;;;;;21.53;20.47;;;17.10;55.10;;;;;;5054707;28;20456;-49
2022/03/06 04:48:09;;;;;;;21.03;20.03;;;17.00;55.20;;;;;;5054383;28;20444;-50
2022/03/06 04:50:36;;;;;;;21.80;20.70;;;17.20;55.20;;;;;;5054419;28;20483;-49
2022/03/06 04:53:02;;;;;;;22.37;21.27;;;17.20;54.90;;;;;;5054765;28;20814;-49
2022/03/06 04:55:29;;;;;;;22.10;21.10;;;17.20;54.90;;;;;;5054385;28;20966;-49
2022/03/06 04:57:57;;;;;;;20.90;20.00;;;17.30;54.80;;;;;;5054436;28;20444;-49
2022/03/06 05:00:24;;;;;;;21.47;20.47;;;17.30;54.70;;;;;;5054272;28;20946;-49
2022/03/06 05:02:51;;;;;;;22.13;21.00;;;17.10;54.70;;;;;;5054606;28;20813;-49
2022/03/06 05:05:17;;;;;;;21.77;20.67;;;17.20;54.90;;;;;;5054490;28;20464;-49
2022/03/06 05:07:44;;;;;;;21.77;20.77;;;17.10;54.90;;;;;;5054241;28;20452;-47
2022/03/06 05:10:11;;;;;;;22.13;21.13;;;17.10;55.00;;;;;;5054213;28;20480;-49
2022/03/06 05:12:40;;;;;;;22.30;21.20;;;17.10;55.00;;;;;;5054196;28;20448;-49
2022/03/06 05:15:10;;;;;;;22.23;21.13;;;17.20;54.80;;;;;;5054186;28;20480;-49
2022/03/06 05:17:37;;;;;;;21.20;20.30;;;17.20;54.80;;;;;;5054222;28;20452;-49
2022/03/06 05:20:05;;;;;;;21.97;20.97;;;17.20;54.80;;;;;;5054029;28;20441;-50
2022/03/06 05:22:32;;;;;;;21.93;20.87;;;17.20;54.60;;;;;;5054227;28;20803;-48
2022/03/06 05:24:59;;;;;;;22.00;20.90;;;17.20;54.70;;;;;;5053589;28;20473;-49
2022/03/06 05:27:25;;;;;;;21.90;20.80;;;17.20;54.90;;;;;;5053943;28;20451;-49
2022/03/06 05:29:52;;;;;;;21.93;20.93;;;17.20;54.90;;;;;;5053701;28;21009;-47
2022/03/06 05:32:20;;;;;;;22.33;21.23;;;17.10;55.10;;;;;;5053983;28;20453;-47
2022/03/06 05:34:47;;;;;;;21.57;20.40;;;17.10;55.10;;;;;;5053613;28;20472;-49
2022/03/06 05:37:14;;;;;;;22.00;21.00;;;17.10;55.10;;;;;;5033722;28;20472;-47
2022/03/06 05:39:41;;;;;;;23.00;21.70;;;17.10;55.20;;;;;;5033651;28;20445;-51
2022/03/06 05:42:08;;;;;;;21.60;20.60;;;17.20;55.20;;;;;;5033886;28;20472;-49
2022/03/06 05:44:35;;;;;;;21.50;20.50;;;17.20;55.20;;;;;;5033691;28;20477;-49
2022/03/06 05:47:02;;;;;;;21.17;20.27;;;17.10;55.10;;;;;;5034028;28;20475;-50
2022/03/06 05:49:30;;;;;;;22.30;21.37;;;17.00;55.10;;;;;;5052971;28;20472;-50
2022/03/06 05:51:57;;;;;;;22.10;21.20;;;17.30;56.60;;;;;;5053513;28;20453;-49
2022/03/06 05:54:23;;;;;;;22.13;21.23;;;17.50;56.80;;;;;;5053493;28;20464;-49
2022/03/06 05:56:50;;;;;;;23.43;22.50;;;17.70;56.10;;;;;;5054040;28;20937;-45
2022/03/06 05:59:17;;;;;;;22.00;21.10;;;17.90;55.50;;;;;;5053061;28;20445;-48
2022/03/06 06:01:43;;;;;;;21.80;20.90;;;18.00;54.70;;;;;;5053463;28;20961;-46
2022/03/06 06:04:12;;;;;;;21.33;20.50;;;18.10;54.10;;;;;;5053531;28;20472;-45
2022/03/06 06:06:40;;;;;;;22.10;21.20;;;18.20;53.70;;;;;;5053296;28;20459;-49
2022/03/06 06:09:07;;;;;;;31.33;30.13;;;18.30;53.40;;;;;;5053032;28;20453;-49
2022/03/06 06:11:34;;;;;;;30.40;29.20;;;18.30;53.10;;;;;;5052909;28;20503;-45
2022/03/06 06:14:00;;;;;;;30.60;29.50;;;18.40;53.30;;;;;;5053087;28;20834;-46
2022/03/06 06:16:27;;;;;;;31.37;30.17;;;18.40;52.50;;;;;;5053133;28;20448;-47
2022/03/06 06:18:54;;;;;;;32.47;31.27;;;18.50;52.30;;;;;;5052930;28;20445;-46
2022/03/06 06:21:21;;;;;;;30.57;29.47;;;18.50;51.90;;;;;;5053050;28;20445;-46
2022/03/06 06:23:49;;;;;;;29.57;28.37;;;18.50;51.70;;;;;;5052614;28;20460;-50
2022/03/06 06:26:17;;;;;;;30.77;29.67;;;18.60;51.80;;;;;;5053075;28;20448;-53
2022/03/06 06:28:52;;;;;;;30.37;29.27;;;18.70;51.90;;;;;;5052908;28;20444;-47
2022/03/06 06:31:24;;;;;;;32.10;30.90;;;18.70;51.90;;;;;;5051980;28;20476;-51
2022/03/06 06:33:53;;;;;;;31.53;30.40;;;18.80;51.80;;;;;;5050932;28;20480;-52
2022/03/06 06:36:21;;;;;;;30.67;29.47;;;18.80;51.60;;;;;;5051132;28;20543;-47
2022/03/06 06:38:50;;;;;;;27.13;26.00;;;18.80;51.40;;;;;;5050656;28;20445;-48
2022/03/06 06:41:20;;;;;;;26.60;25.50;;;18.80;51.20;;;;;;5041144;28;20433;-47
2022/03/06 06:43:47;;;;;;;25.95;24.95;;;18.90;51.20;;;;;;5045785;28;20444;-47
2022/03/06 06:46:15;;;;;;;30.50;29.40;;;18.90;51.00;;;;;;5051326;28;20210;-49
2022/03/06 06:48:42;;;;;;;29.80;28.70;;;18.90;50.70;;;;;;5050715;28;20960;-47
2022/03/06 06:51:10;;;;;;;31.00;29.80;;;18.90;50.50;;;;;;5050580;28;20484;-48
2022/03/06 06:53:37;;;;;;;29.33;28.03;;;19.00;50.90;;;;;;5051132;28;20832;-49
2022/03/06 06:56:06;;;;;;;32.80;31.53;;;18.90;50.30;;;;;;5050751;28;20989;-47
2022/03/06 06:58:33;;;;;;;31.40;30.20;;;19.00;50.30;;;;;;5049788;28;20802;-49
2022/03/06 07:01:00;;;;;;;32.73;31.53;;;19.00;50.20;;;;;;5050579;28;20437;-48
2022/03/06 07:03:27;;;;;;;31.80;30.60;;;19.00;50.10;;;;;;5050664;28;20448;-48
2022/03/06 07:05:55;;;;;;;32.37;31.17;;;19.00;49.90;;;;;;5050362;28;20452;-47
2022/03/06 07:08:22;;;;;;;29.00;27.80;;;19.00;49.80;;;;;;5050658;28;20503;-48
2022/03/06 07:10:49;;;;;;;31.67;30.47;;;19.00;49.70;;;;;;5050010;28;20483;-46
2022/03/06 07:13:18;;;;;;;30.40;29.20;;;19.00;49.90;;;;;;5050381;28;20448;-47
2022/03/06 07:15:45;;;;;;;32.03;30.60;;;19.00;49.80;;;;;;5050238;28;20441;-49
2022/03/06 07:18:12;;;;;;;29.93;28.63;;;19.00;49.90;;;;;;5050250;28;20448;-47
2022/03/06 07:20:39;;;;;;;27.43;26.43;;;19.00;49.90;;;;;;5050421;28;20644;-47
2022/03/06 07:23:06;;;;;;;31.53;30.33;;;19.00;49.80;;;;;;5050096;28;20449;-52
2022/03/06 07:25:33;;;;;;;33.03;31.63;;;19.00;49.80;;;;;;5050264;28;21031;-48
2022/03/06 07:28:00;;;;;;;32.40;31.20;;;19.00;49.70;;;;;;5050134;28;20972;-49
2022/03/06 07:30:29;;;;;;;32.80;31.50;;;19.00;49.70;;;;;;5049750;28;20488;-47
2022/03/06 07:32:56;;;;;;;29.57;28.47;;;19.00;49.50;;;;;;5049960;28;20531;-48
2022/03/06 07:35:23;;;;;;;24.95;23.85;;;19.00;49.60;;;;;;5049318;28;20436;-47
2022/03/06 07:37:51;;;;;;;29.27;28.07;;;19.10;49.50;;;;;;5049832;28;20825;-49
2022/03/06 07:40:19;;;;;;;28.63;27.43;;;19.10;49.10;;;;;;5050054;28;20436;-51
2022/03/06 07:42:46;;;;;;;28.43;27.33;;;19.10;49.20;;;;;;5042634;28;20537;-54
2022/03/06 07:45:14;;;;;;;26.63;25.53;;;19.10;49.10;;;;;;5033871;28;20479;-48
2022/03/06 07:47:43;;;;;;;25.70;24.53;;;19.10;49.20;;;;;;5050058;28;20459;-50
2022/03/06 07:50:11;;;;;;;27.20;26.08;;;19.00;49.10;;;;;;5050011;28;20551;-47
2022/03/06 07:52:39;;;;;;;24.67;23.67;;;19.00;49.50;;;;;;5049995;28;20224;-47
2022/03/06 07:55:08;;;;;;;25.87;24.80;;;19.00;49.50;;;;;;5049553;28;20476;-48
2022/03/06 07:57:35;;;;;;;26.00;24.90;;;18.90;49.50;;;;;;5050089;28;20446;-48
2022/03/06 08:00:02;;;;;;;27.57;26.37;;;18.90;49.50;;;;;;5050831;28;20444;-47
2022/03/06 08:02:29;;;;;;;26.33;25.13;;;18.90;49.60;;;;;;5054346;28;20993;-47
2022/03/06 08:04:57;;;;;;;25.47;24.20;;;18.90;49.70;;;;;;5054244;28;20544;-48
2022/03/06 08:07:24;;;;;;;29.60;28.30;;;18.90;49.50;;;;;;5054298;28;20535;-47
2022/03/06 08:09:51;;;;;;;28.00;26.60;;;18.90;49.80;;;;;;5053891;28;20436;-50
2022/03/06 08:12:18;;;;;;;25.17;24.07;;;18.90;49.70;;;;;;5054621;28;20458;-48
2022/03/06 08:14:45;;;;;;;26.97;25.77;;;18.90;49.60;;;;;;5054298;28;20495;-47
2022/03/06 08:17:11;;;;;;;26.70;25.60;;;18.90;49.50;;;;;;5053917;28;20449;-47
2022/03/06 08:19:38;;;;;;;26.57;25.27;;;19.00;49.60;;;;;;5053926;28;20451;-47
2022/03/06 08:22:07;;;;;;;25.30;24.20;;;19.00;49.60;;;;;;5054106;28;20550;-48
2022/03/06 08:24:34;;;;;;;27.73;26.43;;;19.00;49.80;;;;;;5054024;28;20499;-47
2022/03/06 08:27:01;;;;;;;27.00;25.77;;;19.00;49.80;;;;;;5053544;28;20555;-50
2022/03/06 08:29:28;;;;;;;29.20;28.03;;;19.00;49.90;;;;;;5053788;28;20871;-57
2022/03/06 08:31:54;;;;;;;28.33;27.13;;;19.00;50.40;;;;;;5053681;28;20480;-51
2022/03/06 08:34:21;;;;;;;29.43;28.00;;;19.10;50.10;;;;;;5053575;28;20468;-46
2022/03/06 08:36:48;;;;;;;27.67;26.47;;;19.10;50.30;;;;;;5053196;28;20452;-47
2022/03/06 08:39:16;;;;;;;28.37;27.17;;;19.10;50.50;;;;;;5054034;28;20452;-46
2022/03/06 08:41:43;;;;;;;27.27;25.97;;;19.10;50.70;;;;;;5053892;28;20472;-46
2022/03/06 08:44:10;;;;;;;28.07;26.80;;;19.10;51.00;;;;;;5053641;28;20526;-46
2022/03/06 08:46:37;;;;;;;27.40;26.20;;;19.10;51.50;;;;;;5053944;28;20448;-45
2022/03/06 08:49:04;;;;;;;26.73;25.63;;;19.10;52.10;;;;;;5053283;28;20547;-46
2022/03/06 08:51:32;;;;;;;26.10;25.00;;;19.10;52.20;;;;;;5053035;28;20484;-46
2022/03/06 08:54:00;;;;;;;24.60;23.50;;;19.10;52.40;;;;;;5052622;28;20838;-46
2022/03/06 08:56:28;;;;;;;28.50;25.60;;;19.10;52.50;;;;;;5053136;28;20443;-46
2022/03/06 08:58:55;;;;;;;26.00;24.80;;;19.10;52.70;;;;;;5052415;28;20448;-45
2022/03/06 09:01:22;;;;;;;25.63;24.30;;;19.20;52.70;;;;;;5052899;28;20452;-45
2022/03/06 09:03:49;;;;;;;25.70;24.70;;;19.20;52.70;;;;;;5051354;28;20534;-45
2022/03/06 09:06:16;;;;;;;25.83;24.43;;;19.20;52.70;;;;;;5052929;28;20449;-49
2022/03/06 09:08:43;;;;;;;24.80;23.80;;;19.20;52.70;;;;;;5052491;28;20794;-46
2022/03/06 09:11:09;;;;;;;26.13;25.03;;;19.20;52.00;;;;;;5052808;28;20484;-48
2022/03/06 09:13:38;;;;;;;25.80;24.70;;;19.20;51.50;;;;;;5052112;28;20555;-49
2022/03/06 09:16:05;;;;;;;27.63;26.23;;;19.30;51.10;;;;;;5052650;28;20449;-48
2022/03/06 09:18:32;;;;;;;28.50;27.00;;;19.20;49.70;;;;;;5052892;28;20831;-48
2022/03/06 09:20:59;;;;;;;28.37;27.17;;;19.20;50.00;;;;;;5052674;28;20829;-45
2022/03/06 09:23:27;;;;;;;25.47;24.10;;;19.30;49.70;;;;;;5052623;28;20455;-46
2022/03/06 09:25:53;;;;;;;28.20;26.87;;;19.30;50.40;;;;;;5052651;28;20449;-46
2022/03/06 09:28:20;;;;;;;27.10;26.00;;;19.30;49.80;;;;;;5052067;28;20539;-45
2022/03/06 09:30:48;;;;;;;25.07;23.70;;;19.30;49.90;;;;;;5052099;28;21099;-46
2022/03/06 09:33:15;;;;;;;25.90;24.50;;;19.30;50.10;;;;;;5051866;28;20452;-45
2022/03/06 09:35:42;;;;;;;26.50;25.17;;;19.40;50.60;;;;;;5052193;28;20448;-46
2022/03/06 09:38:09;;;;;;;26.70;25.40;;;19.40;51.00;;;;;;5052066;28;20808;-51
2022/03/06 09:40:37;;;;;;;25.30;24.20;;;19.40;50.50;;;;;;5052207;28;20470;-49
2022/03/06 09:43:03;;;;;;;24.40;23.30;;;19.30;50.00;;;;;;5052348;28;20547;-48
2022/03/06 09:45:33;;;;;;;25.43;24.20;;;19.40;49.70;;;;;;5051804;28;20535;-46
2022/03/06 09:48:03;;;;;;;26.00;24.70;;;19.30;49.50;;;;;;5051324;28;20531;-48
2022/03/06 09:50:30;;;;;;;26.13;24.50;;;19.30;50.30;;;;;;5051644;28;20771;-50
2022/03/06 09:52:57;;;;;;;29.43;27.30;;;19.30;52.10;;;;;;5051806;28;20483;-52
2022/03/06 09:55:25;;;;;;;29.50;27.83;;;19.30;55.20;;;;;;5040382;28;20469;-48
2022/03/06 09:57:54;;;;;;;26.97;25.40;;;19.40;57.00;;;;;;5049016;28;20452;-46
2022/03/06 10:00:21;;;;;;;29.80;27.40;;;19.40;57.90;;;;;;5051689;28;20452;-45
2022/03/06 10:02:58;;;;;;;30.13;28.40;;;19.40;58.90;;;;;;5043645;28;20472;-48
2022/03/06 10:05:33;;;;;;;31.27;29.00;;;19.40;59.10;;;;;;5050239;28;20464;-48
2022/03/06 10:08:19;;;;;;;29.87;28.03;;;19.50;58.90;;;;;;5051905;28;20452;-47
2022/03/06 10:10:46;;;;;;;29.23;27.33;;;19.50;57.50;;;;;;5051335;28;20600;-50
2022/03/06 10:13:21;;;;;;;29.00;27.20;;;19.60;56.80;;;;;;5050890;28;20510;-46
2022/03/06 10:16:18;;;;;;;30.20;28.70;;;19.50;56.50;;;;;;5051535;28;20448;-47
2022/03/06 10:18:47;;;;;;;29.93;28.17;;;19.50;55.80;;;;;;5051247;28;20502;-47
2022/03/06 10:21:21;;;;;;;27.63;26.23;;;19.50;55.40;;;;;;5051400;28;20451;-47
2022/03/06 10:23:50;;;;;;;26.10;24.90;;;19.60;54.90;;;;;;5050786;28;20547;-49
2022/03/06 10:26:18;;;;;;;29.47;27.87;;;19.60;54.30;;;;;;5050836;28;20448;-45
2022/03/06 10:28:53;;;;;;;28.23;26.53;;;19.70;53.80;;;;;;5050972;28;20444;-46
2022/03/06 10:31:21;;;;;;;26.97;25.50;;;19.70;53.40;;;;;;5050928;28;20997;-45
2022/03/06 10:34:00;;;;;;;25.23;24.03;;;19.70;52.80;;;;;;5050942;28;20504;-47
2022/03/06 10:36:33;;;;;;;25.97;24.57;;;19.80;52.60;;;;;;5051127;28;20962;-46
2022/03/06 10:39:00;;;;;;;25.23;23.90;;;19.80;52.20;;;;;;5050988;28;20440;-45
2022/03/06 10:41:35;;;;;;;26.37;24.90;;;19.80;51.70;;;;;;5050999;28;20444;-45
2022/03/06 10:44:03;;;;;;;29.13;27.70;;;19.80;51.30;;;;;;5050460;28;20989;-48
2022/03/06 10:46:33;;;;;;;28.67;27.23;;;19.80;51.10;;;;;;5051050;28;20448;-45
2022/03/06 10:49:07;;;;;;;26.63;25.03;;;19.90;51.00;;;;;;5050720;28;20449;-46
2022/03/06 10:51:40;;;;;;;26.47;25.07;;;19.90;50.70;;;;;;5050820;28;20904;-45
2022/03/06 10:54:07;;;;;;;25.13;24.10;;;19.90;50.70;;;;;;5050810;28;20883;-46
2022/03/06 10:56:34;;;;;;;28.60;26.80;;;19.90;50.50;;;;;;5050613;28;20779;-45
2022/03/06 10:59:03;;;;;;;27.93;26.57;;;20.00;50.50;;;;;;5050349;28;20523;-45
2022/03/06 11:01:30;;;;;;;27.57;25.93;;;20.00;50.30;;;;;;5050615;28;20440;-47
2022/03/06 11:03:59;;;;;;;28.90;27.40;;;20.10;50.20;;;;;;5050509;28;20461;-47
2022/03/06 11:06:27;;;;;;;24.40;23.30;;;20.10;49.90;;;;;;5050479;28;20440;-45
2022/03/06 11:08:56;;;;;;;25.97;24.87;;;20.20;49.60;;;;;;5050250;28;20455;-45
2022/03/06 11:11:23;;;;;;;25.67;24.57;;;20.30;49.80;;;;;;5050353;28;21005;-44
2022/03/06 11:13:50;;;;;;;27.10;25.80;;;20.50;48.90;;;;;;5050493;28;21076;-46
2022/03/06 11:16:18;;;;;;;25.83;24.63;;;20.50;48.50;;;;;;5049911;28;20532;-46
2022/03/06 11:18:45;;;;;;;27.80;26.40;;;20.70;48.30;;;;;;5050220;28;20448;-44
2022/03/06 11:21:13;;;;;;;26.37;25.17;;;20.90;47.90;;;;;;5050455;28;20440;-47
2022/03/06 11:23:44;;;;;;;26.53;25.23;;;21.20;47.40;;;;;;5050395;28;20468;-45
2022/03/06 11:26:46;;;;;;;24.23;23.03;;;21.40;46.90;;;;;;5050437;28;20449;-44
2022/03/06 11:29:44;;;;;;;26.97;25.67;;;21.60;46.40;;;;;;5050247;28;20443;-45
2022/03/06 11:32:11;;;;;;;30.77;29.30;;;21.70;45.90;;;;;;5050126;28;20480;-44
2022/03/06 11:34:40;;;;;;;26.70;25.50;;;21.80;45.50;;;;;;5050197;28;20467;-49
2022/03/06 11:37:12;;;;;;;29.67;28.17;;;21.90;45.20;;;;;;5049637;28;20946;-45
2022/03/06 11:39:47;;;;;;;26.30;25.20;;;21.90;45.00;;;;;;5049842;28;20456;-48
2022/03/06 11:42:47;;;;;;;26.30;25.10;;;22.00;44.70;;;;;;5049727;28;20519;-46
2022/03/06 11:45:48;;;;;;;25.40;24.30;;;22.20;44.50;;;;;;5049665;28;20985;-44
2022/03/06 11:48:28;;;;;;;24.70;23.27;;;22.80;43.90;;;;;;5049790;28;20483;-48
2022/03/06 11:51:18;;;;;;;25.00;23.90;;;23.50;43.10;;;;;;5050008;28;20969;-46
2022/03/06 11:53:52;;;;;;;25.67;24.50;;;24.70;41.80;;;;;;5049561;28;20473;-46
2022/03/06 11:56:50;;;;;;;27.23;25.93;;;25.70;40.70;;;;;;5050567;28;20440;-46
2022/03/06 11:59:35;;;;;;;27.33;26.13;;;26.60;38.40;;;;;;5049942;28;20514;-45
2022/03/06 12:02:10;;;;;;;28.13;26.83;;;27.30;37.00;;;;;;5049994;28;20452;-48
2022/03/06 12:04:40;;;;;;;27.07;25.87;;;27.80;35.90;;;;;;5050174;28;20464;-49
2022/03/06 12:07:08;;;;;;;31.27;30.00;;;28.30;35.00;;;;;;5050150;28;20448;-47
2022/03/06 12:09:38;;;;;;;35.43;33.97;;;28.60;34.30;;;;;;5049838;28;20436;-46
2022/03/06 12:12:08;;;;;;;30.50;29.30;;;28.90;33.50;;;;;;5049930;28;20503;-47
2022/03/06 12:14:37;;;;;;;29.00;27.90;;;28.90;33.20;;;;;;5049957;28;20776;-49
2022/03/06 12:17:38;;;;;;;29.57;28.37;;;29.20;33.30;;;;;;5049915;28;20458;-46
2022/03/06 12:20:26;;;;;;;31.00;29.70;;;29.50;32.10;;;;;;5049842;28;20653;-49
2022/03/06 12:23:06;;;;;;;31.90;30.60;;;28.50;32.00;;;;;;5049748;28;20950;-48
2022/03/06 12:25:35;;;;;;;30.00;28.80;;;27.40;33.00;;;;;;5049579;28;20460;-48
2022/03/06 12:28:42;;;;;;;31.00;29.50;;;27.30;34.00;;;;;;5049500;28;20440;-47
2022/03/06 12:31:37;;;;;;;28.50;27.40;;;28.40;33.50;;;;;;5049821;28;20448;-48
2022/03/06 12:34:40;;;;;;;28.77;27.67;;;29.30;32.50;;;;;;5049836;28;20992;-46
2022/03/06 12:37:08;;;;;;;27.33;26.23;;;29.70;31.50;;;;;;5050179;28;20456;-49